createdAt,value
2019-04-04T00:01:57.290Z,976.31
2019-04-04T00:03:57.252Z,976.48
2019-04-04T00:05:57.363Z,976.52
2019-04-04T00:07:58.103Z,976.35
2019-04-04T00:09:57.071Z,976.36
2019-04-04T00:11:57.191Z,976.44
2019-04-04T00:13:57.115Z,976.09
2019-04-04T00:15:57.108Z,976.32
2019-04-04T00:17:57.242Z,976.49
2019-04-04T00:19:58.990Z,976.48
2019-04-04T00:21:57.353Z,976.11
2019-04-04T00:23:57.154Z,976.29
2019-04-04T00:25:57.184Z,976.49
2019-04-04T00:27:57.190Z,976.26
2019-04-04T00:29:57.003Z,976.64
2019-04-04T00:31:57.206Z,975.86
2019-04-04T00:33:57.006Z,976.63
2019-04-04T00:35:57.397Z,976.16
2019-04-04T00:37:57.138Z,976.36
2019-04-04T00:39:57.154Z,976.36
2019-04-04T00:41:57.161Z,976.39
2019-04-04T00:43:57.380Z,976.61
2019-04-04T00:45:57.075Z,976.50
2019-04-04T00:47:57.112Z,976.36
2019-04-04T00:49:57.108Z,976.39
2019-04-04T00:51:57.047Z,976.35
2019-04-04T00:53:57.125Z,976.55
2019-04-04T00:55:57.235Z,976.45
2019-04-04T00:57:57.358Z,976.23
2019-04-04T00:59:57.052Z,976.46
2019-04-04T01:01:57.617Z,976.19
2019-04-04T01:04:00.323Z,976.11
2019-04-04T01:05:57.100Z,976.40
2019-04-04T01:07:57.409Z,976.37
2019-04-04T01:09:57.221Z,976.31
2019-04-04T01:11:57.226Z,976.55
2019-04-04T01:13:57.923Z,976.34
2019-04-04T01:15:57.455Z,976.44
2019-04-04T01:17:57.098Z,976.44
2019-04-04T01:19:57.280Z,976.07
2019-04-04T01:21:57.192Z,975.95
2019-04-04T01:23:58.309Z,976.23
2019-04-04T01:25:57.214Z,975.88
2019-04-04T01:27:57.636Z,976.40
2019-04-04T01:29:57.046Z,976.25
2019-04-04T01:31:57.351Z,976.12
2019-04-04T01:33:57.165Z,976.12
2019-04-04T01:35:57.373Z,975.92
2019-04-04T01:37:58.244Z,976.07
2019-04-04T01:39:57.195Z,976.16
2019-04-04T01:41:57.303Z,975.69
2019-04-04T01:44:04.875Z,975.48
2019-04-04T01:45:57.135Z,975.75
2019-04-04T01:47:57.241Z,975.40
2019-04-04T01:49:57.245Z,975.53
2019-04-04T01:51:57.979Z,975.55
2019-04-04T01:53:57.113Z,975.45
2019-04-04T01:55:57.483Z,975.59
2019-04-04T01:57:57.222Z,975.38
2019-04-04T01:59:57.507Z,975.41
2019-04-04T02:01:57.317Z,975.39
2019-04-04T02:03:57.272Z,975.22
2019-04-04T02:05:58.257Z,975.34
2019-04-04T02:08:00.550Z,975.28
2019-04-04T02:09:57.157Z,975.39
2019-04-04T02:11:57.175Z,974.94
2019-04-04T02:13:57.179Z,975.17
2019-04-04T02:15:57.194Z,975.08
2019-04-04T02:17:57.418Z,975.22
2019-04-04T02:19:57.224Z,975.23
2019-04-04T02:21:57.854Z,975.31
2019-04-04T02:23:57.448Z,975.69
2019-04-04T02:25:57.166Z,975.38
2019-04-04T02:27:57.466Z,975.30
2019-04-04T02:29:57.368Z,975.50
2019-04-04T02:31:57.035Z,975.62
2019-04-04T02:33:57.114Z,975.62
2019-04-04T02:35:57.156Z,975.44
2019-04-04T02:37:57.323Z,975.68
2019-04-04T02:39:57.538Z,975.04
2019-04-04T02:41:57.200Z,975.35
2019-04-04T02:43:59.413Z,975.63
2019-04-04T02:45:57.318Z,975.51
2019-04-04T02:47:57.383Z,975.34
2019-04-04T02:50:01.126Z,975.79
2019-04-04T02:51:57.407Z,975.13
2019-04-04T02:53:57.027Z,975.09
2019-04-04T02:55:57.192Z,975.08
2019-04-04T02:57:57.154Z,974.82
2019-04-04T02:59:57.260Z,974.97
2019-04-04T03:01:57.374Z,974.91
2019-04-04T03:03:57.478Z,975.24
2019-04-04T03:05:57.317Z,975.16
2019-04-04T03:07:57.399Z,974.82
2019-04-04T03:09:57.731Z,974.71
2019-04-04T03:11:57.221Z,975.15
2019-04-04T03:13:57.234Z,975.25
2019-04-04T03:15:57.444Z,974.83
2019-04-04T03:17:57.251Z,975.18
2019-04-04T03:19:57.361Z,975.23
2019-04-04T03:21:57.278Z,975.24
2019-04-04T03:23:57.468Z,975.35
2019-04-04T03:25:57.242Z,975.28
2019-04-04T03:27:58.261Z,975.20
2019-04-04T03:29:57.322Z,975.11
2019-04-04T03:31:57.412Z,975.24
2019-04-04T03:33:57.299Z,975.37
2019-04-04T03:35:57.545Z,975.08
2019-04-04T03:37:57.572Z,974.87
2019-04-04T03:39:57.280Z,975.11
2019-04-04T03:41:57.398Z,975.03
2019-04-04T03:43:57.045Z,975.43
2019-04-04T03:46:00.371Z,974.84
2019-04-04T03:47:57.298Z,975.23
2019-04-04T03:49:58.017Z,974.93
2019-04-04T03:51:57.361Z,975.23
2019-04-04T03:53:57.091Z,974.93
2019-04-04T03:55:59.941Z,975.53
2019-04-04T03:57:57.291Z,974.95
2019-04-04T03:59:57.294Z,974.73
2019-04-04T04:01:57.304Z,975.03
2019-04-04T04:03:57.225Z,974.64
2019-04-04T04:05:57.526Z,974.38
2019-04-04T04:07:57.208Z,973.96
2019-04-04T04:09:59.816Z,974.28
2019-04-04T04:11:57.361Z,974.42
2019-04-04T04:13:57.383Z,973.82
2019-04-04T04:15:57.397Z,973.90
2019-04-04T04:17:57.255Z,974.29
2019-04-04T04:19:57.201Z,974.09
2019-04-04T04:21:57.422Z,974.31
2019-04-04T04:23:58.027Z,974.41
2019-04-04T04:25:57.365Z,974.46
2019-04-04T04:27:57.352Z,974.96
2019-04-04T04:30:00.119Z,974.56
2019-04-04T04:31:57.475Z,974.48
2019-04-04T04:34:00.766Z,974.48
2019-04-04T04:35:57.507Z,974.58
2019-04-04T04:37:57.308Z,974.45
2019-04-04T04:39:57.298Z,974.44
2019-04-04T04:41:57.532Z,974.29
2019-04-04T04:43:57.550Z,974.02
2019-04-04T04:45:57.292Z,974.11
2019-04-04T04:47:57.584Z,974.16
2019-04-04T04:49:57.382Z,974.20
2019-04-04T04:51:57.387Z,974.44
2019-04-04T04:53:57.513Z,974.13
2019-04-04T04:55:59.600Z,974.55
2019-04-04T04:57:57.318Z,974.32
2019-04-04T04:59:57.435Z,974.29
2019-04-04T05:01:57.301Z,974.58
2019-04-04T05:03:57.462Z,974.40
2019-04-04T05:05:57.470Z,974.48
2019-04-04T05:07:57.249Z,974.43
2019-04-04T05:09:57.513Z,974.43
2019-04-04T05:11:57.712Z,974.34
2019-04-04T05:13:58.124Z,974.58
2019-04-04T05:15:57.440Z,974.56
2019-04-04T05:17:57.436Z,974.47
2019-04-04T05:19:57.464Z,974.38
2019-04-04T05:21:57.667Z,974.50
2019-04-04T05:23:57.312Z,974.27
2019-04-04T05:25:57.590Z,974.34
2019-04-04T05:27:57.564Z,974.50
2019-04-04T05:29:57.339Z,974.19
2019-04-04T05:31:57.519Z,974.28
2019-04-04T05:33:59.049Z,974.40
2019-04-04T05:35:57.551Z,974.24
2019-04-04T05:37:57.498Z,974.33
2019-04-04T05:39:57.279Z,974.27
2019-04-04T05:41:59.904Z,974.80
2019-04-04T05:43:57.274Z,974.18
2019-04-04T05:45:57.598Z,974.61
2019-04-04T05:47:59.717Z,974.26
2019-04-04T05:49:57.522Z,974.59
2019-04-04T05:51:57.440Z,974.81
2019-04-04T05:53:57.551Z,974.77
2019-04-04T05:55:57.559Z,974.19
2019-04-04T05:57:57.771Z,974.67
2019-04-04T05:59:57.347Z,974.25
2019-04-04T06:01:57.512Z,974.11
2019-04-04T06:03:57.503Z,974.22
2019-04-04T06:05:59.212Z,974.55
2019-04-04T06:07:57.631Z,974.15
2019-04-04T06:09:57.173Z,974.76
2019-04-04T06:11:57.659Z,974.25
2019-04-04T06:13:59.114Z,974.25
2019-04-04T06:15:57.522Z,974.56
2019-04-04T06:17:57.588Z,974.73
2019-04-04T06:19:57.335Z,974.63
2019-04-04T06:21:57.513Z,974.53
2019-04-04T06:23:57.724Z,974.49
2019-04-04T06:25:57.327Z,974.94
2019-04-04T06:27:57.384Z,974.50
2019-04-04T06:29:57.251Z,974.13
2019-04-04T06:31:59.967Z,974.15
2019-04-04T06:33:57.471Z,974.32
2019-04-04T06:35:57.483Z,974.60
2019-04-04T06:37:57.595Z,974.19
2019-04-04T06:39:58.817Z,974.38
2019-04-04T06:41:57.412Z,974.30
2019-04-04T06:43:57.629Z,974.26
2019-04-04T06:45:57.439Z,974.09
2019-04-04T06:47:58.226Z,974.48
2019-04-04T06:49:57.466Z,974.29
2019-04-04T06:51:57.483Z,974.25
2019-04-04T06:53:59.555Z,974.35
2019-04-04T06:55:58.179Z,974.52
2019-04-04T06:57:57.427Z,974.25
2019-04-04T06:59:57.527Z,974.42
2019-04-04T07:01:57.534Z,974.35
2019-04-04T07:03:59.478Z,974.06
2019-04-04T07:05:57.557Z,974.52
2019-04-04T07:07:57.437Z,974.29
2019-04-04T07:09:57.587Z,974.21
2019-04-04T07:11:57.488Z,974.45
2019-04-04T07:13:59.089Z,974.29
2019-04-04T07:16:07.031Z,974.49
2019-04-04T07:17:57.426Z,974.63
2019-04-04T07:19:57.514Z,974.09
2019-04-04T07:21:57.558Z,974.04
2019-04-04T07:23:59.439Z,974.05
2019-04-04T07:25:57.466Z,974.54
2019-04-04T07:27:57.580Z,974.26
2019-04-04T07:29:57.388Z,974.19
2019-04-04T07:31:57.445Z,974.26
2019-04-04T07:33:57.546Z,974.16
2019-04-04T07:35:57.547Z,974.01
2019-04-04T07:37:57.735Z,974.54
2019-04-04T07:39:57.451Z,974.23
2019-04-04T07:41:57.856Z,974.53
2019-04-04T07:43:58.679Z,974.50
2019-04-04T07:45:59.936Z,974.34
2019-04-04T07:47:57.545Z,974.44
2019-04-04T07:49:57.712Z,974.59
2019-04-04T07:51:57.618Z,974.29
2019-04-04T07:53:57.431Z,974.49
2019-04-04T07:55:57.646Z,974.20
2019-04-04T07:57:57.556Z,974.50
2019-04-04T07:59:57.775Z,974.16
2019-04-04T08:01:57.688Z,974.10
2019-04-04T08:03:57.596Z,974.36
2019-04-04T08:05:57.809Z,974.59
2019-04-04T08:07:57.609Z,974.30
2019-04-04T08:09:57.752Z,974.71
2019-04-04T08:11:57.575Z,974.49
2019-04-04T08:13:57.477Z,974.62
2019-04-04T08:15:57.348Z,974.30
2019-04-04T08:17:57.769Z,974.56
2019-04-04T08:19:59.891Z,974.38
2019-04-04T08:21:57.536Z,974.34
2019-04-04T08:23:57.602Z,974.19
2019-04-04T08:25:57.550Z,974.23
2019-04-04T08:27:57.626Z,974.55
2019-04-04T08:29:57.745Z,974.35
2019-04-04T08:31:57.547Z,974.57
2019-04-04T08:33:57.764Z,974.12
2019-04-04T08:36:05.771Z,974.31
2019-04-04T08:37:57.684Z,974.46
2019-04-04T08:39:57.690Z,974.23
2019-04-04T08:41:57.599Z,973.87
2019-04-04T08:43:57.721Z,974.03
2019-04-04T08:45:57.533Z,974.08
2019-04-04T08:47:57.852Z,974.21
2019-04-04T08:49:57.449Z,973.91
2019-04-04T08:51:57.503Z,974.05
2019-04-04T08:53:57.780Z,973.93
2019-04-04T08:55:57.632Z,974.12
2019-04-04T08:57:57.648Z,974.22
2019-04-04T08:59:57.376Z,973.82
2019-04-04T09:01:57.620Z,973.71
2019-04-04T09:03:57.831Z,974.08
2019-04-04T09:05:57.638Z,974.06
2019-04-04T09:07:57.651Z,974.28
2019-04-04T09:09:57.659Z,974.22
2019-04-04T09:11:57.622Z,974.06
2019-04-04T09:13:57.790Z,974.54
2019-04-04T09:15:57.609Z,974.50
2019-04-04T09:17:57.560Z,973.98
2019-04-04T09:19:57.629Z,974.37
2019-04-04T09:21:57.839Z,974.00
2019-04-04T09:24:00.470Z,974.46
2019-04-04T09:26:05.610Z,974.38
2019-04-04T09:27:57.616Z,974.49
2019-04-04T09:29:57.786Z,974.17
2019-04-04T09:31:57.337Z,974.47
2019-04-04T09:33:57.583Z,974.26
2019-04-04T09:35:57.451Z,974.15
2019-04-04T09:37:57.626Z,974.23
2019-04-04T09:39:57.741Z,974.02
2019-04-04T09:41:57.755Z,974.56
2019-04-04T09:43:57.771Z,974.07
2019-04-04T09:45:57.525Z,974.44
2019-04-04T09:47:57.675Z,974.36
2019-04-04T09:49:57.799Z,974.08
2019-04-04T09:51:57.683Z,974.14
2019-04-04T09:53:57.784Z,973.93
2019-04-04T09:55:57.832Z,973.61
2019-04-04T09:57:57.949Z,973.58
2019-04-04T09:59:57.616Z,973.73
2019-04-04T10:01:57.766Z,973.58
2019-04-04T10:03:57.681Z,973.85
2019-04-04T10:05:58.203Z,973.48
2019-04-04T10:07:57.592Z,974.16
2019-04-04T10:09:57.814Z,973.76
2019-04-04T10:11:57.613Z,973.95
2019-04-04T10:13:57.947Z,973.97
2019-04-04T10:15:57.742Z,974.08
2019-04-04T10:17:57.860Z,974.21
2019-04-04T10:19:57.668Z,974.00
2019-04-04T10:21:57.623Z,973.89
2019-04-04T10:23:57.687Z,973.97
2019-04-04T10:25:57.724Z,973.75
2019-04-04T10:27:57.919Z,974.06
2019-04-04T10:29:58.038Z,974.19
2019-04-04T10:31:57.857Z,974.44
2019-04-04T10:33:57.638Z,974.32
2019-04-04T10:35:57.392Z,974.60
2019-04-04T10:37:57.664Z,974.22
2019-04-04T10:39:57.627Z,974.14
2019-04-04T10:41:57.898Z,974.50
2019-04-04T10:43:57.639Z,974.58
2019-04-04T10:45:57.507Z,974.55
2019-04-04T10:47:57.641Z,974.66
2019-04-04T10:49:58.572Z,974.46
2019-04-04T10:51:57.744Z,974.61
2019-04-04T10:53:57.865Z,974.55
2019-04-04T10:55:57.671Z,974.58
2019-04-04T10:57:57.603Z,974.30
2019-04-04T10:59:57.901Z,974.72
2019-04-04T11:02:00.661Z,974.49
2019-04-04T11:03:57.818Z,974.60
2019-04-04T11:05:57.775Z,974.60
2019-04-04T11:07:57.845Z,974.47
2019-04-04T11:09:57.857Z,974.61
2019-04-04T11:11:57.770Z,974.47
2019-04-04T11:13:57.802Z,974.45
2019-04-04T11:15:57.618Z,973.97
2019-04-04T11:17:58.102Z,974.16
2019-04-04T11:19:58.075Z,974.62
2019-04-04T11:21:57.640Z,974.23
2019-04-04T11:23:57.734Z,974.40
2019-04-04T11:25:57.706Z,974.20
2019-04-04T11:27:57.755Z,974.65
2019-04-04T11:29:57.723Z,974.65
2019-04-04T11:31:57.880Z,974.27
2019-04-04T11:33:58.099Z,974.37
2019-04-04T11:35:57.902Z,974.08
2019-04-04T11:37:57.821Z,974.37
2019-04-04T11:39:57.927Z,974.74
2019-04-04T11:41:57.526Z,974.41
2019-04-04T11:43:58.066Z,974.39
2019-04-04T11:45:57.685Z,974.74
2019-04-04T11:47:57.867Z,974.65
2019-04-04T11:49:57.782Z,974.15
2019-04-04T11:51:57.719Z,973.99
2019-04-04T11:53:57.956Z,974.64
2019-04-04T11:55:57.843Z,974.24
2019-04-04T11:57:57.726Z,974.37
2019-04-04T11:59:57.783Z,974.36
2019-04-04T12:01:57.855Z,974.44
2019-04-04T12:03:58.162Z,974.49
2019-04-04T12:05:57.574Z,974.37
2019-04-04T12:07:57.890Z,974.38
2019-04-04T12:10:07.388Z,974.63
2019-04-04T12:11:58.019Z,974.61
2019-04-04T12:13:57.817Z,974.39
2019-04-04T12:15:57.943Z,974.52
2019-04-04T12:17:57.944Z,974.71
2019-04-04T12:19:57.757Z,974.45
2019-04-04T12:21:57.772Z,974.66
2019-04-04T12:23:57.790Z,974.54
2019-04-04T12:25:57.725Z,974.43
2019-04-04T12:27:57.800Z,974.44
2019-04-04T12:29:57.808Z,974.47
2019-04-04T12:31:58.026Z,974.53
2019-04-04T12:33:57.824Z,974.89
2019-04-04T12:35:57.956Z,974.92
2019-04-04T12:37:57.732Z,974.76
2019-04-04T12:39:57.779Z,974.79
2019-04-04T12:42:00.421Z,975.06
2019-04-04T12:43:57.538Z,975.06
2019-04-04T12:45:57.798Z,975.22
2019-04-04T12:47:58.013Z,975.17
2019-04-04T12:49:57.762Z,975.28
2019-04-04T12:51:57.833Z,975.05
2019-04-04T12:53:58.052Z,975.33
2019-04-04T12:55:57.654Z,975.08
2019-04-04T12:57:58.083Z,974.88
2019-04-04T12:59:57.949Z,974.90
2019-04-04T13:01:57.813Z,975.03
2019-04-04T13:03:57.802Z,974.77
2019-04-04T13:05:57.911Z,974.75
2019-04-04T13:07:57.931Z,975.05
2019-04-04T13:10:10.712Z,974.77
2019-04-04T13:11:57.869Z,975.14
2019-04-04T13:13:57.964Z,975.06
2019-04-04T13:15:57.816Z,975.52
2019-04-04T13:17:57.987Z,975.45
2019-04-04T13:19:58.203Z,975.22
2019-04-04T13:21:58.007Z,974.84
2019-04-04T13:23:57.874Z,975.43
2019-04-04T13:25:57.898Z,975.41
2019-04-04T13:27:57.842Z,975.38
2019-04-04T13:29:57.743Z,975.27
2019-04-04T13:31:57.765Z,975.43
2019-04-04T13:33:57.816Z,975.48
2019-04-04T13:35:57.735Z,975.42
2019-04-04T13:37:57.738Z,975.11
2019-04-04T13:39:57.904Z,975.49
2019-04-04T13:41:57.829Z,975.63
2019-04-04T13:43:57.851Z,975.34
2019-04-04T13:45:57.759Z,975.55
2019-04-04T13:47:57.958Z,975.48
2019-04-04T13:49:57.973Z,975.65
2019-04-04T13:51:57.887Z,975.26
2019-04-04T13:53:57.855Z,975.39
2019-04-04T13:55:59.153Z,975.25
2019-04-04T13:57:57.782Z,975.40
2019-04-04T14:00:00.692Z,975.64
2019-04-04T14:01:58.242Z,975.86
2019-04-04T14:03:57.785Z,975.32
2019-04-04T14:05:58.145Z,975.62
2019-04-04T14:08:00.304Z,975.82
2019-04-04T14:09:57.876Z,975.67
2019-04-04T14:11:57.887Z,975.69
2019-04-04T14:13:58.925Z,975.78
2019-04-04T14:15:57.921Z,976.04
2019-04-04T14:17:57.881Z,975.52
2019-04-04T14:19:57.760Z,976.11
2019-04-04T14:21:57.844Z,976.18
2019-04-04T14:23:58.062Z,976.14
2019-04-04T14:25:59.974Z,976.11
2019-04-04T14:27:58.574Z,976.27
2019-04-04T14:29:57.891Z,975.73
2019-04-04T14:31:57.786Z,976.01
2019-04-04T14:33:58.029Z,976.09
2019-04-04T14:36:00.478Z,976.14
2019-04-04T14:37:57.847Z,976.27
2019-04-04T14:39:57.739Z,976.15
2019-04-04T14:41:57.876Z,976.16
2019-04-04T14:43:59.934Z,975.95
2019-04-04T14:45:57.836Z,975.97
2019-04-04T14:48:00.875Z,975.56
2019-04-04T14:49:58.214Z,976.21
2019-04-04T14:51:57.983Z,975.59
2019-04-04T14:53:58.236Z,975.67
2019-04-04T14:56:00.820Z,975.65
2019-04-04T14:57:57.950Z,975.66
2019-04-04T14:59:58.027Z,975.53
2019-04-04T15:01:57.761Z,975.82
2019-04-04T15:03:57.890Z,975.97
2019-04-04T15:06:00.513Z,976.04
2019-04-04T15:08:00.835Z,976.08
2019-04-04T15:09:58.027Z,976.25
2019-04-04T15:11:58.238Z,976.28
2019-04-04T15:13:57.946Z,976.24
2019-04-04T15:16:00.654Z,976.38
2019-04-04T15:17:57.965Z,976.03
2019-04-04T15:19:57.887Z,976.23
2019-04-04T15:22:00.956Z,976.45
2019-04-04T15:23:57.775Z,976.53
2019-04-04T15:25:57.892Z,976.30
2019-04-04T15:28:01.012Z,976.56
2019-04-04T15:29:58.037Z,976.57
2019-04-04T15:31:57.941Z,975.96
2019-04-04T15:33:57.892Z,976.20
2019-04-04T15:35:57.979Z,975.95
2019-04-04T15:37:58.195Z,976.26
2019-04-04T15:39:57.854Z,976.05
2019-04-04T15:41:58.216Z,976.29
2019-04-04T15:44:00.975Z,976.49
2019-04-04T15:45:57.823Z,976.49
2019-04-04T15:47:58.053Z,976.66
2019-04-04T15:49:58.054Z,976.73
2019-04-04T15:51:59.598Z,976.43
2019-04-04T15:54:00.932Z,976.59
2019-04-04T15:55:58.089Z,976.64
2019-04-04T15:57:57.999Z,976.79
2019-04-04T15:59:58.111Z,976.96
2019-04-04T16:01:58.126Z,976.75
2019-04-04T16:03:57.892Z,977.05
2019-04-04T16:05:58.046Z,977.01
2019-04-04T16:07:57.959Z,977.20
2019-04-04T16:09:57.962Z,977.21
2019-04-04T16:11:58.188Z,976.77
2019-04-04T16:13:57.997Z,977.12
2019-04-04T16:15:57.878Z,977.32
2019-04-04T16:17:57.781Z,977.27
2019-04-04T16:19:58.023Z,977.20
2019-04-04T16:21:58.364Z,977.13
2019-04-04T16:23:58.249Z,977.19
2019-04-04T16:25:58.055Z,977.30
2019-04-04T16:27:57.912Z,977.16
2019-04-04T16:29:58.292Z,977.09
2019-04-04T16:32:01.057Z,977.24
2019-04-04T16:33:58.113Z,977.26
2019-04-04T16:35:57.895Z,977.18
2019-04-04T16:37:58.126Z,977.50
2019-04-04T16:40:08.148Z,977.20
2019-04-04T16:42:02.479Z,977.44
2019-04-04T16:43:58.061Z,977.13
2019-04-04T16:45:57.973Z,977.30
2019-04-04T16:47:58.186Z,977.39
2019-04-04T16:49:58.139Z,977.12
2019-04-04T16:51:58.056Z,977.26
2019-04-04T16:53:57.902Z,977.30
2019-04-04T16:55:58.034Z,977.71
2019-04-04T16:57:58.240Z,977.31
2019-04-04T16:59:58.054Z,977.48
2019-04-04T17:01:58.070Z,977.38
2019-04-04T17:04:01.741Z,977.68
2019-04-04T17:05:58.085Z,977.38
2019-04-04T17:07:58.040Z,977.17
2019-04-04T17:09:58.184Z,977.25
2019-04-04T17:11:58.223Z,977.40
2019-04-04T17:13:58.647Z,977.31
2019-04-04T17:15:57.961Z,977.42
2019-04-04T17:17:58.152Z,977.56
2019-04-04T17:19:58.064Z,977.51
2019-04-04T17:21:58.688Z,977.38
2019-04-04T17:23:58.291Z,977.24
2019-04-04T17:25:58.106Z,977.36
2019-04-04T17:27:58.321Z,977.24
2019-04-04T17:29:58.131Z,977.37
2019-04-04T17:31:58.177Z,977.49
2019-04-04T17:33:58.681Z,977.26
2019-04-04T17:35:58.161Z,977.61
2019-04-04T17:37:58.022Z,977.78
2019-04-04T17:39:58.034Z,977.82
2019-04-04T17:41:57.862Z,977.58
2019-04-04T17:43:58.109Z,977.94
2019-04-04T17:45:58.695Z,977.75
2019-04-04T17:47:58.331Z,978.15
2019-04-04T17:49:58.297Z,978.22
2019-04-04T17:51:58.388Z,978.11
2019-04-04T17:53:58.221Z,977.90
2019-04-04T17:55:58.613Z,978.02
2019-04-04T17:57:58.291Z,978.05
2019-04-04T17:59:58.306Z,978.27
2019-04-04T18:01:58.105Z,978.19
2019-04-04T18:03:58.069Z,978.29
2019-04-04T18:05:58.122Z,977.98
2019-04-04T18:07:58.660Z,978.07
2019-04-04T18:09:58.354Z,978.34
2019-04-04T18:11:58.772Z,978.19
2019-04-04T18:13:58.195Z,978.60
2019-04-04T18:15:58.290Z,978.41
2019-04-04T18:17:58.248Z,978.28
2019-04-04T18:19:58.119Z,978.29
2019-04-04T18:21:58.121Z,978.42
2019-04-04T18:23:58.138Z,978.33
2019-04-04T18:25:58.171Z,978.62
2019-04-04T18:27:58.460Z,978.52
2019-04-04T18:29:58.191Z,978.55
2019-04-04T18:31:58.103Z,978.50
2019-04-04T18:33:58.794Z,978.43
2019-04-04T18:35:58.197Z,978.30
2019-04-04T18:37:58.614Z,978.14
2019-04-04T18:39:58.196Z,978.59
2019-04-04T18:41:58.240Z,978.50
2019-04-04T18:43:58.200Z,978.26
2019-04-04T18:45:58.361Z,978.80
2019-04-04T18:47:58.381Z,978.57
2019-04-04T18:49:58.281Z,979.00
2019-04-04T18:51:58.205Z,978.71
2019-04-04T18:53:58.210Z,978.81
2019-04-04T18:55:58.113Z,978.72
2019-04-04T18:57:58.535Z,978.49
2019-04-04T18:59:58.344Z,978.80
2019-04-04T19:01:58.333Z,978.94
2019-04-04T19:03:58.244Z,978.91
2019-04-04T19:05:58.184Z,978.54
2019-04-04T19:07:58.199Z,978.80
2019-04-04T19:09:58.104Z,978.92
2019-04-04T19:11:58.211Z,978.94
2019-04-04T19:13:58.216Z,978.88
2019-04-04T19:15:58.320Z,978.91
2019-04-04T19:17:58.138Z,978.99
2019-04-04T19:19:58.274Z,979.04
2019-04-04T19:21:58.280Z,979.04
2019-04-04T19:23:58.382Z,978.91
2019-04-04T19:25:58.388Z,978.74
2019-04-04T19:27:58.308Z,978.89
2019-04-04T19:29:58.327Z,979.13
2019-04-04T19:31:58.639Z,978.93
2019-04-04T19:33:58.160Z,978.90
2019-04-04T19:35:58.146Z,978.77
2019-04-04T19:38:00.269Z,978.95
2019-04-04T19:39:58.336Z,979.24
2019-04-04T19:41:58.175Z,979.00
2019-04-04T19:43:58.075Z,979.43
2019-04-04T19:45:58.399Z,979.16
2019-04-04T19:47:58.114Z,979.23
2019-04-04T19:49:58.159Z,978.97
2019-04-04T19:51:58.333Z,979.24
2019-04-04T19:53:58.255Z,979.33
2019-04-04T19:55:58.573Z,979.20
2019-04-04T19:57:58.271Z,979.23
2019-04-04T19:59:58.287Z,979.87
2019-04-04T20:01:58.236Z,979.40
2019-04-04T20:03:58.208Z,979.22
2019-04-04T20:05:58.121Z,979.59
2019-04-04T20:07:58.327Z,979.30
2019-04-04T20:09:58.340Z,979.60
2019-04-04T20:11:58.561Z,979.53
2019-04-04T20:13:58.362Z,979.28
2019-04-04T20:15:58.277Z,979.33
2019-04-04T20:17:58.287Z,979.40
2019-04-04T20:19:58.165Z,979.46
2019-04-04T20:21:58.540Z,979.42
2019-04-04T20:23:58.481Z,979.56
2019-04-04T20:25:58.228Z,979.55
2019-04-04T20:27:58.340Z,979.74
2019-04-04T20:29:58.358Z,979.81
2019-04-04T20:31:58.164Z,979.58
2019-04-04T20:34:01.702Z,979.65
2019-04-04T20:35:58.318Z,979.73
2019-04-04T20:37:58.296Z,979.61
2019-04-04T20:39:58.310Z,979.68
2019-04-04T20:41:58.254Z,979.77
2019-04-04T20:43:58.431Z,979.96
2019-04-04T20:45:58.448Z,979.96
2019-04-04T20:47:58.153Z,979.63
2019-04-04T20:49:58.129Z,979.90
2019-04-04T20:51:58.007Z,979.52
2019-04-04T20:53:58.303Z,979.95
2019-04-04T20:55:58.504Z,979.91
2019-04-04T20:57:58.420Z,979.51
2019-04-04T20:59:58.429Z,979.67
2019-04-04T21:01:58.334Z,979.85
2019-04-04T21:03:58.401Z,979.59
2019-04-04T21:05:58.462Z,979.63
2019-04-04T21:07:58.266Z,979.58
2019-04-04T21:09:58.334Z,979.74
2019-04-04T21:11:58.194Z,979.67
2019-04-04T21:13:58.225Z,979.68
2019-04-04T21:15:58.242Z,979.50
2019-04-04T21:17:58.124Z,979.81
2019-04-04T21:19:58.130Z,979.95
2019-04-04T21:21:58.657Z,979.63
2019-04-04T21:23:58.375Z,979.74
2019-04-04T21:25:58.581Z,979.66
2019-04-04T21:27:58.276Z,979.52
2019-04-04T21:29:58.297Z,979.81
2019-04-04T21:31:58.413Z,979.55
2019-04-04T21:33:58.534Z,979.78
2019-04-04T21:35:58.565Z,979.78
2019-04-04T21:37:58.591Z,979.71
2019-04-04T21:39:58.455Z,980.03
2019-04-04T21:41:58.469Z,979.71
2019-04-04T21:44:08.121Z,979.79
2019-04-04T21:45:58.489Z,979.47
2019-04-04T21:47:58.405Z,979.83
2019-04-04T21:49:58.423Z,979.97
2019-04-04T21:51:58.420Z,979.83
2019-04-04T21:53:58.288Z,979.78
2019-04-04T21:55:58.453Z,979.65
2019-04-04T21:57:58.350Z,979.84
2019-04-04T21:59:58.599Z,979.77
2019-04-04T22:01:58.484Z,979.81
2019-04-04T22:03:58.491Z,979.84
2019-04-04T22:05:58.506Z,979.90
2019-04-04T22:07:58.739Z,980.04
2019-04-04T22:09:58.531Z,980.36
2019-04-04T22:11:58.546Z,979.80
2019-04-04T22:13:58.554Z,980.02
2019-04-04T22:15:58.483Z,979.86
2019-04-04T22:17:58.578Z,980.47
2019-04-04T22:19:58.788Z,980.42
2019-04-04T22:21:58.352Z,980.30
2019-04-04T22:23:58.448Z,980.43
2019-04-04T22:25:58.470Z,980.15
2019-04-04T22:27:58.532Z,980.31
2019-04-04T22:29:58.745Z,980.15
2019-04-04T22:31:58.438Z,980.05
2019-04-04T22:33:58.381Z,980.19
2019-04-04T22:35:58.506Z,980.25
2019-04-04T22:37:58.688Z,980.04
2019-04-04T22:39:58.499Z,979.88
2019-04-04T22:41:58.410Z,979.94
2019-04-04T22:44:03.554Z,979.90
2019-04-04T22:45:58.531Z,980.13
2019-04-04T22:47:58.543Z,980.09
2019-04-04T22:49:58.315Z,980.28
2019-04-04T22:51:58.440Z,979.93
2019-04-04T22:53:58.582Z,980.16
2019-04-04T22:55:58.485Z,979.88
2019-04-04T22:57:58.395Z,979.98
2019-04-04T22:59:58.414Z,980.00
2019-04-04T23:01:58.403Z,980.02
2019-04-04T23:03:58.353Z,979.92
2019-04-04T23:05:58.440Z,980.56
2019-04-04T23:07:58.661Z,980.12
2019-04-04T23:09:58.676Z,980.34
2019-04-04T23:11:58.580Z,980.07
2019-04-04T23:13:58.798Z,980.09
2019-04-04T23:15:58.331Z,980.13
2019-04-04T23:17:58.347Z,980.58
2019-04-04T23:19:58.627Z,980.47
2019-04-04T23:21:58.472Z,980.30
2019-04-04T23:23:58.551Z,980.08
2019-04-04T23:25:58.421Z,980.44
2019-04-04T23:27:58.575Z,980.63
2019-04-04T23:29:58.585Z,980.12
2019-04-04T23:31:58.903Z,980.76
2019-04-04T23:33:58.513Z,980.73
2019-04-04T23:35:58.622Z,980.31
2019-04-04T23:37:58.413Z,980.79
2019-04-04T23:39:58.337Z,980.48
2019-04-04T23:41:58.313Z,980.73
2019-04-04T23:43:58.431Z,980.59
2019-04-04T23:45:58.495Z,980.98
2019-04-04T23:47:58.786Z,980.97
2019-04-04T23:49:58.583Z,980.57
2019-04-04T23:51:58.763Z,981.00
2019-04-04T23:53:58.717Z,980.87
2019-04-04T23:55:58.535Z,980.98
2019-04-04T23:57:58.587Z,980.88
2019-04-04T23:59:58.409Z,981.12
